Time;durP1;ratioP1;P1;durP2;ratioP2;P2;SDS_P1;SDS_P2;PMS_P1;PMS_P2;Temp;Humidity;BMP_temperature;BMP_pressure;BME280_temperature;BME280_humidity;BME280_pressure;Samples;Min_cycle;Max_cycle;Signal;HPM_P1;HPM_P2
2023/04/29 00:00:32;;;;;;;50.73;30.43;;;;;;;;;;5041515;28;20413;-63
2023/04/29 00:03:00;;;;;;;48.88;31.60;;;;;;;;;;5048644;28;20832;-64
2023/04/29 00:05:27;;;;;;;51.90;33.30;;;;;;;;;;5039716;28;20790;-62
2023/04/29 00:07:54;;;;;;;52.65;32.35;;;;;;;;;;5042205;28;20418;-63
2023/04/29 00:10:22;;;;;;;52.95;31.58;;;;;;;;;;5040104;28;20487;-63
2023/04/29 00:12:50;;;;;;;50.72;33.10;;;;;;;;;;5045058;28;20447;-63
2023/04/29 00:15:17;;;;;;;53.10;32.67;;;;;;;;;;5040204;28;20419;-63
2023/04/29 00:17:44;;;;;;;53.72;34.58;;;;;;;;;;5039066;28;20415;-63
2023/04/29 00:20:12;;;;;;;56.65;34.50;;;;;;;;;;5030062;28;20423;-63
2023/04/29 00:22:39;;;;;;;59.58;35.22;;;;;;;;;;5031560;28;20426;-63
2023/04/29 00:25:07;;;;;;;55.90;35.70;;;;;;;;;;5038725;28;20742;-63
2023/04/29 00:27:35;;;;;;;56.13;34.38;;;;;;;;;;5039985;28;20413;-63
2023/04/29 00:30:02;;;;;;;55.70;35.10;;;;;;;;;;5038276;28;20427;-64
2023/04/29 00:32:29;;;;;;;55.60;34.20;;;;;;;;;;5049417;28;20420;-63
2023/04/29 00:34:56;;;;;;;57.85;36.72;;;;;;;;;;5043577;28;20787;-64
2023/04/29 00:37:23;;;;;;;62.25;36.72;;;;;;;;;;5038933;28;20413;-63
2023/04/29 00:39:50;;;;;;;55.03;33.80;;;;;;;;;;5038116;28;20477;-64
2023/04/29 00:42:18;;;;;;;53.45;32.47;;;;;;;;;;5044296;28;20447;-63
2023/04/29 00:44:46;;;;;;;50.10;30.73;;;;;;;;;;5040003;28;20809;-63
2023/04/29 00:47:14;;;;;;;48.28;29.45;;;;;;;;;;5038685;28;20778;-63
2023/04/29 00:49:41;;;;;;;49.72;30.42;;;;;;;;;;5040425;28;20412;-64
2023/04/29 00:52:08;;;;;;;47.88;28.88;;;;;;;;;;5038916;28;20788;-63
2023/04/29 00:54:35;;;;;;;49.95;29.98;;;;;;;;;;5038641;28;20817;-64
2023/04/29 00:57:02;;;;;;;47.25;30.17;;;;;;;;;;5043679;28;20421;-63
2023/04/29 00:59:31;;;;;;;53.17;30.73;;;;;;;;;;5038670;28;20837;-64
2023/04/29 01:02:00;;;;;;;52.70;31.38;;;;;;;;;;5046313;28;20415;-63
2023/04/29 01:04:27;;;;;;;60.22;33.25;;;;;;;;;;5039130;28;20415;-63
2023/04/29 01:06:59;;;;;;;65.80;35.27;;;;;;;;;;5038352;28;20427;-62
2023/04/29 01:09:39;;;;;;;60.17;33.42;;;;;;;;;;5037867;28;20884;-64
2023/04/29 01:12:09;;;;;;;62.35;33.03;;;;;;;;;;5042947;28;20409;-64
2023/04/29 01:14:36;;;;;;;64.32;35.15;;;;;;;;;;5038542;28;20929;-63
2023/04/29 01:17:06;;;;;;;66.40;36.00;;;;;;;;;;5041106;28;20413;-65
2023/04/29 01:19:40;;;;;;;70.45;37.35;;;;;;;;;;5038919;28;20407;-65
2023/04/29 01:22:07;;;;;;;83.10;40.90;;;;;;;;;;5040538;28;20463;-64
2023/04/29 01:24:36;;;;;;;77.30;38.40;;;;;;;;;;5037409;28;20409;-63
2023/04/29 01:27:11;;;;;;;79.80;39.57;;;;;;;;;;5042591;28;21046;-63
2023/04/29 01:29:41;;;;;;;92.18;42.22;;;;;;;;;;5039611;28;20406;-63
2023/04/29 01:32:13;;;;;;;92.73;41.33;;;;;;;;;;5043549;28;20440;-63
2023/04/29 01:34:43;;;;;;;92.22;43.30;;;;;;;;;;5047583;28;20775;-63
2023/04/29 01:37:14;;;;;;;100.32;42.35;;;;;;;;;;5042283;28;20482;-64
2023/04/29 01:39:47;;;;;;;106.10;46.10;;;;;;;;;;5042328;28;20465;-63
2023/04/29 01:42:16;;;;;;;102.20;43.65;;;;;;;;;;5044230;28;20417;-64
2023/04/29 01:44:43;;;;;;;111.22;47.22;;;;;;;;;;5044229;28;20401;-63
2023/04/29 01:47:11;;;;;;;111.32;47.35;;;;;;;;;;5032898;28;20472;-63
2023/04/29 01:49:38;;;;;;;110.10;46.95;;;;;;;;;;5033190;28;20469;-63
2023/04/29 01:52:05;;;;;;;118.88;47.78;;;;;;;;;;5037202;28;20445;-63
2023/04/29 01:54:35;;;;;;;134.90;51.90;;;;;;;;;;5042436;28;20437;-63
2023/04/29 01:57:03;;;;;;;128.85;51.30;;;;;;;;;;5044492;28;20428;-62
2023/04/29 01:59:30;;;;;;;148.77;54.70;;;;;;;;;;5042260;28;20451;-64
2023/04/29 02:01:57;;;;;;;139.32;52.05;;;;;;;;;;5048966;28;20751;-62
2023/04/29 02:04:25;;;;;;;144.48;55.47;;;;;;;;;;5048488;28;20413;-64
2023/04/29 02:06:52;;;;;;;148.70;53.50;;;;;;;;;;5039787;28;20826;-62
2023/04/29 02:09:19;;;;;;;150.07;53.97;;;;;;;;;;5041342;28;20421;-62
2023/04/29 02:11:46;;;;;;;164.98;57.38;;;;;;;;;;5044912;28;20426;-63
2023/04/29 02:14:14;;;;;;;145.48;52.63;;;;;;;;;;5041255;28;20427;-63
2023/04/29 02:16:44;;;;;;;142.40;51.67;;;;;;;;;;5042810;28;20423;-63
2023/04/29 02:19:11;;;;;;;141.35;52.03;;;;;;;;;;5043286;28;20908;-63
2023/04/29 02:21:38;;;;;;;141.80;52.55;;;;;;;;;;5037886;28;20426;-63
2023/04/29 02:24:06;;;;;;;152.02;53.22;;;;;;;;;;5041243;28;20881;-63
2023/04/29 02:26:33;;;;;;;162.13;54.20;;;;;;;;;;5043020;28;20963;-63
2023/04/29 02:29:00;;;;;;;160.00;53.97;;;;;;;;;;5042466;28;20426;-61
2023/04/29 02:31:28;;;;;;;147.90;52.35;;;;;;;;;;5047563;28;20448;-64
2023/04/29 02:33:55;;;;;;;141.98;50.47;;;;;;;;;;5049924;28;20437;-62
2023/04/29 02:36:23;;;;;;;126.43;47.65;;;;;;;;;;5040441;28;20790;-64
2023/04/29 02:38:52;;;;;;;127.40;47.20;;;;;;;;;;5032152;28;20450;-61
2023/04/29 02:41:19;;;;;;;127.20;48.90;;;;;;;;;;5036139;28;20423;-64
2023/04/29 02:43:47;;;;;;;126.13;49.23;;;;;;;;;;5040282;28;20411;-63
2023/04/29 02:46:15;;;;;;;135.68;50.03;;;;;;;;;;5042446;28;20500;-63
2023/04/29 02:48:43;;;;;;;142.60;50.78;;;;;;;;;;5045052;28;20500;-63
2023/04/29 02:51:10;;;;;;;142.98;52.70;;;;;;;;;;5044693;28;20448;-63
2023/04/29 02:53:37;;;;;;;145.20;53.30;;;;;;;;;;5039250;28;20423;-63
2023/04/29 02:56:05;;;;;;;135.65;50.55;;;;;;;;;;5042433;28;20413;-64
2023/04/29 02:58:32;;;;;;;119.53;46.63;;;;;;;;;;5038952;28;20409;-64
2023/04/29 03:00:59;;;;;;;120.30;47.60;;;;;;;;;;5045099;28;20438;-62
2023/04/29 03:03:26;;;;;;;123.97;47.60;;;;;;;;;;5046587;28;20417;-63
2023/04/29 03:05:54;;;;;;;128.18;48.15;;;;;;;;;;5042519;28;20926;-64
2023/04/29 03:08:21;;;;;;;120.85;44.90;;;;;;;;;;5038663;28;20787;-64
2023/04/29 03:10:48;;;;;;;104.38;40.10;;;;;;;;;;5042138;28;20425;-63
2023/04/29 03:13:15;;;;;;;92.68;38.25;;;;;;;;;;5031293;28;20411;-64
2023/04/29 03:15:43;;;;;;;86.50;36.05;;;;;;;;;;5031235;28;20427;-63
2023/04/29 03:18:10;;;;;;;90.15;36.92;;;;;;;;;;5031128;28;20415;-62
2023/04/29 03:20:37;;;;;;;96.90;37.88;;;;;;;;;;5031781;28;20442;-63
2023/04/29 03:23:06;;;;;;;91.45;35.83;;;;;;;;;;5039687;28;20417;-65
2023/04/29 03:25:33;;;;;;;81.47;33.47;;;;;;;;;;5042713;28;20414;-64
2023/04/29 03:28:00;;;;;;;78.32;32.47;;;;;;;;;;5043260;28;20537;-63
2023/04/29 03:30:27;;;;;;;78.47;33.38;;;;;;;;;;5039877;28;20415;-63
2023/04/29 03:32:54;;;;;;;78.05;32.92;;;;;;;;;;5047681;28;20416;-63
2023/04/29 03:35:21;;;;;;;78.25;33.35;;;;;;;;;;5039388;28;20492;-64
2023/04/29 03:37:47;;;;;;;71.67;31.80;;;;;;;;;;5038338;28;20535;-63
2023/04/29 03:40:16;;;;;;;74.55;31.73;;;;;;;;;;5039591;28;20961;-63
2023/04/29 03:42:43;;;;;;;78.95;33.28;;;;;;;;;;5042151;28;20905;-64
2023/04/29 03:45:12;;;;;;;75.17;31.90;;;;;;;;;;5041420;28;20481;-63
2023/04/29 03:47:39;;;;;;;73.68;31.25;;;;;;;;;;5041837;28;20592;-63
2023/04/29 03:50:06;;;;;;;71.57;32.60;;;;;;;;;;5044299;28;20510;-63
2023/04/29 03:52:35;;;;;;;71.32;32.35;;;;;;;;;;5039310;28;20458;-63
2023/04/29 03:55:02;;;;;;;70.78;31.85;;;;;;;;;;5040600;28;20496;-63
2023/04/29 03:57:30;;;;;;;68.97;31.20;;;;;;;;;;5041240;28;20458;-63
2023/04/29 03:59:57;;;;;;;72.47;31.63;;;;;;;;;;5039434;28;20493;-64
2023/04/29 04:02:24;;;;;;;70.03;30.15;;;;;;;;;;5042547;28;20415;-63
2023/04/29 04:04:53;;;;;;;74.47;32.55;;;;;;;;;;5045507;28;20893;-64
2023/04/29 04:07:20;;;;;;;65.65;30.20;;;;;;;;;;5041043;28;20954;-63
2023/04/29 04:09:48;;;;;;;62.15;29.48;;;;;;;;;;5041313;28;20768;-64
2023/04/29 04:12:15;;;;;;;77.40;33.60;;;;;;;;;;5041129;28;20504;-63
2023/04/29 04:14:43;;;;;;;72.78;31.92;;;;;;;;;;5041460;28;20421;-64
2023/04/29 04:17:10;;;;;;;75.80;32.77;;;;;;;;;;5039187;28;20411;-64
2023/04/29 04:19:37;;;;;;;79.90;34.78;;;;;;;;;;5039700;28;20411;-63
2023/04/29 04:22:04;;;;;;;81.85;34.38;;;;;;;;;;5042597;28;20479;-63
2023/04/29 04:24:31;;;;;;;82.40;35.57;;;;;;;;;;5039998;28;20411;-63
2023/04/29 04:26:58;;;;;;;86.68;36.63;;;;;;;;;;5042077;28;20422;-64
2023/04/29 04:29:25;;;;;;;88.07;36.22;;;;;;;;;;5039254;28;20461;-63
2023/04/29 04:31:54;;;;;;;82.20;35.95;;;;;;;;;;5045790;28;20788;-63
2023/04/29 04:34:21;;;;;;;89.78;37.47;;;;;;;;;;5045980;28;20425;-65
2023/04/29 04:36:48;;;;;;;82.25;36.72;;;;;;;;;;5043717;28;20436;-60
2023/04/29 04:39:15;;;;;;;83.72;37.70;;;;;;;;;;5044154;28;20421;-63
2023/04/29 04:41:42;;;;;;;88.97;37.22;;;;;;;;;;5043685;28;20423;-61
2023/04/29 04:44:09;;;;;;;88.43;37.70;;;;;;;;;;5046532;28;20463;-64
2023/04/29 04:46:36;;;;;;;86.30;36.65;;;;;;;;;;5038587;28;20421;-64
2023/04/29 04:49:05;;;;;;;86.47;37.45;;;;;;;;;;5039876;28;20414;-63
2023/04/29 04:51:32;;;;;;;81.97;36.55;;;;;;;;;;5041238;28;20516;-63
2023/04/29 04:53:58;;;;;;;88.70;36.88;;;;;;;;;;5039603;28;20415;-63
2023/04/29 04:56:25;;;;;;;74.80;36.13;;;;;;;;;;5039841;28;20478;-64
2023/04/29 04:58:52;;;;;;;75.18;34.92;;;;;;;;;;5041097;28;20417;-64
2023/04/29 05:01:20;;;;;;;77.75;36.05;;;;;;;;;;5046691;28;20417;-63
2023/04/29 05:03:47;;;;;;;69.47;33.65;;;;;;;;;;5046984;28;20459;-64
2023/04/29 05:06:15;;;;;;;74.43;34.50;;;;;;;;;;5039967;28;20421;-62
2023/04/29 05:08:42;;;;;;;67.22;33.78;;;;;;;;;;5041740;28;20418;-64
2023/04/29 05:11:16;;;;;;;67.65;33.33;;;;;;;;;;5046838;28;20478;-65
2023/04/29 05:13:42;;;;;;;67.20;33.80;;;;;;;;;;5045756;28;20958;-63
2023/04/29 05:16:09;;;;;;;60.83;31.75;;;;;;;;;;5043121;28;20840;-63
2023/04/29 05:18:36;;;;;;;62.90;32.40;;;;;;;;;;5042300;28;20411;-63
2023/04/29 05:21:04;;;;;;;61.97;31.95;;;;;;;;;;5042279;28;20427;-64
2023/04/29 05:23:32;;;;;;;70.45;33.28;;;;;;;;;;5042294;28;20801;-65
2023/04/29 05:25:59;;;;;;;70.57;35.88;;;;;;;;;;5042598;28;20474;-64
2023/04/29 05:28:26;;;;;;;72.67;36.07;;;;;;;;;;5045792;28;20571;-63
2023/04/29 05:30:53;;;;;;;74.55;36.22;;;;;;;;;;5047736;28;20477;-62
2023/04/29 05:33:21;;;;;;;68.90;34.60;;;;;;;;;;5046216;28;20787;-63
2023/04/29 05:35:48;;;;;;;73.28;36.28;;;;;;;;;;5043866;28;21002;-64
2023/04/29 05:38:15;;;;;;;72.17;35.77;;;;;;;;;;5044605;28;20413;-63
2023/04/29 05:40:43;;;;;;;72.85;36.72;;;;;;;;;;5043193;28;20473;-63
2023/04/29 05:43:10;;;;;;;68.57;36.13;;;;;;;;;;5048041;28;20477;-63
2023/04/29 05:45:37;;;;;;;70.35;35.50;;;;;;;;;;5043702;28;20413;-63
2023/04/29 05:48:04;;;;;;;65.45;34.85;;;;;;;;;;5043857;28;20479;-63
2023/04/29 05:50:31;;;;;;;69.80;37.95;;;;;;;;;;5043003;28;20479;-63
2023/04/29 05:52:58;;;;;;;71.00;36.78;;;;;;;;;;5046636;28;20965;-64
2023/04/29 05:55:25;;;;;;;72.28;36.20;;;;;;;;;;5042947;28;20932;-63
2023/04/29 05:57:54;;;;;;;70.20;35.92;;;;;;;;;;5049144;28;20447;-63
2023/04/29 06:00:22;;;;;;;59.25;33.63;;;;;;;;;;5044870;28;20417;-63
2023/04/29 06:02:49;;;;;;;59.47;33.33;;;;;;;;;;5047774;28;20484;-64
2023/04/29 06:05:16;;;;;;;57.05;33.88;;;;;;;;;;5045246;28;20846;-63
2023/04/29 06:07:43;;;;;;;63.58;34.55;;;;;;;;;;5043510;28;20797;-63
2023/04/29 06:10:10;;;;;;;62.33;34.43;;;;;;;;;;5042141;28;20793;-64
2023/04/29 06:12:37;;;;;;;54.30;32.58;;;;;;;;;;5044213;28;20419;-64
2023/04/29 06:15:06;;;;;;;55.88;33.20;;;;;;;;;;5042697;28;20471;-64
2023/04/29 06:17:33;;;;;;;61.35;33.60;;;;;;;;;;5042951;28;20884;-63
2023/04/29 06:20:00;;;;;;;65.40;33.88;;;;;;;;;;5040520;28;20969;-63
2023/04/29 06:22:27;;;;;;;58.80;33.53;;;;;;;;;;5042854;28;20431;-64
2023/04/29 06:24:54;;;;;;;52.65;30.58;;;;;;;;;;5047666;28;20429;-64
2023/04/29 06:27:21;;;;;;;49.03;30.67;;;;;;;;;;5045657;28;20549;-61
2023/04/29 06:29:48;;;;;;;47.97;29.90;;;;;;;;;;5047146;28;20415;-64
2023/04/29 06:32:17;;;;;;;49.57;30.00;;;;;;;;;;5046858;28;20417;-64
2023/04/29 06:34:44;;;;;;;47.40;30.20;;;;;;;;;;5048201;28;20465;-64
2023/04/29 06:37:11;;;;;;;49.10;29.70;;;;;;;;;;5043872;28;20792;-64
2023/04/29 06:39:38;;;;;;;46.95;28.40;;;;;;;;;;5042266;28;20914;-61
2023/04/29 06:42:06;;;;;;;41.43;28.17;;;;;;;;;;5044524;28;20417;-65
2023/04/29 06:44:33;;;;;;;51.65;31.58;;;;;;;;;;5042926;28;20424;-60
2023/04/29 06:47:00;;;;;;;49.22;31.58;;;;;;;;;;5040647;28;20415;-64
2023/04/29 06:49:28;;;;;;;55.15;32.80;;;;;;;;;;5042735;28;20413;-63
2023/04/29 06:51:55;;;;;;;50.75;32.03;;;;;;;;;;5043557;28;20432;-63
2023/04/29 06:54:22;;;;;;;48.40;32.05;;;;;;;;;;5040711;28;20415;-64
2023/04/29 06:56:50;;;;;;;46.78;30.88;;;;;;;;;;5043761;28;20458;-64
2023/04/29 06:59:16;;;;;;;50.78;32.53;;;;;;;;;;5040123;28;20759;-63
2023/04/29 07:01:43;;;;;;;52.08;32.47;;;;;;;;;;5045806;28;20801;-65
2023/04/29 07:04:10;;;;;;;50.50;33.05;;;;;;;;;;5050737;28;20776;-64
2023/04/29 07:06:39;;;;;;;52.95;32.85;;;;;;;;;;5039188;28;20423;-65
2023/04/29 07:09:06;;;;;;;57.70;34.60;;;;;;;;;;5041883;28;20417;-63
2023/04/29 07:11:33;;;;;;;53.35;33.70;;;;;;;;;;5039404;28;20423;-64
2023/04/29 07:14:00;;;;;;;49.60;32.03;;;;;;;;;;5043840;28;20419;-62
2023/04/29 07:16:27;;;;;;;50.70;32.50;;;;;;;;;;5047754;28;20425;-63
2023/04/29 07:18:54;;;;;;;54.13;33.72;;;;;;;;;;5047574;28;20422;-63
2023/04/29 07:21:21;;;;;;;52.00;32.15;;;;;;;;;;5041180;28;20422;-63
2023/04/29 07:23:49;;;;;;;51.22;31.38;;;;;;;;;;5041817;28;20487;-63
2023/04/29 07:26:17;;;;;;;51.05;31.85;;;;;;;;;;5041804;28;20421;-62
2023/04/29 07:28:44;;;;;;;49.35;30.05;;;;;;;;;;5042070;28;20478;-60
2023/04/29 07:31:11;;;;;;;56.72;34.05;;;;;;;;;;5042260;28;20412;-62
2023/04/29 07:33:38;;;;;;;54.15;33.78;;;;;;;;;;5046929;28;20422;-63
2023/04/29 07:36:06;;;;;;;55.92;33.40;;;;;;;;;;5041605;28;20871;-60
2023/04/29 07:38:33;;;;;;;53.83;34.05;;;;;;;;;;5048270;28;20422;-62
2023/04/29 07:41:03;;;;;;;55.42;34.22;;;;;;;;;;5052817;28;20447;-63
2023/04/29 07:43:30;;;;;;;58.45;36.13;;;;;;;;;;5040351;28;20444;-63
2023/04/29 07:45:57;;;;;;;58.00;35.63;;;;;;;;;;5041545;28;20471;-63
2023/04/29 07:48:24;;;;;;;53.45;32.58;;;;;;;;;;5040984;28;20971;-64
2023/04/29 07:50:51;;;;;;;51.67;35.28;;;;;;;;;;5042384;28;20428;-65
2023/04/29 07:53:18;;;;;;;53.72;35.47;;;;;;;;;;5045279;28;20807;-64
2023/04/29 07:55:46;;;;;;;52.97;33.97;;;;;;;;;;5044142;28;20495;-64
2023/04/29 07:58:14;;;;;;;45.78;30.75;;;;;;;;;;5039075;28;20417;-64
2023/04/29 08:00:41;;;;;;;43.08;29.35;;;;;;;;;;5042138;28;20926;-64
2023/04/29 08:03:09;;;;;;;44.47;30.85;;;;;;;;;;5064757;28;20420;-62
2023/04/29 08:05:36;;;;;;;45.72;30.20;;;;;;;;;;5042568;28;20891;-64
2023/04/29 08:08:03;;;;;;;48.97;31.80;;;;;;;;;;5046911;28;20431;-63
2023/04/29 08:10:30;;;;;;;51.33;32.55;;;;;;;;;;5041796;28;20411;-64
2023/04/29 08:12:57;;;;;;;52.50;33.35;;;;;;;;;;5037709;28;20418;-66
2023/04/29 08:15:25;;;;;;;53.92;32.97;;;;;;;;;;5041355;28;20425;-66
2023/04/29 08:17:53;;;;;;;54.35;33.50;;;;;;;;;;5039394;28;20414;-66
2023/04/29 08:20:20;;;;;;;52.42;32.92;;;;;;;;;;5038702;28;20425;-68
2023/04/29 08:22:47;;;;;;;53.08;31.77;;;;;;;;;;5041132;28;20414;-67
2023/04/29 08:25:14;;;;;;;48.50;30.73;;;;;;;;;;5038891;28;20413;-66
2023/04/29 08:27:42;;;;;;;50.83;31.85;;;;;;;;;;5042411;28;20515;-66
2023/04/29 08:30:09;;;;;;;53.38;32.40;;;;;;;;;;5041106;28;20420;-65
2023/04/29 08:32:38;;;;;;;52.45;32.65;;;;;;;;;;5051389;28;20430;-64
2023/04/29 08:35:05;;;;;;;54.50;34.35;;;;;;;;;;5047826;28;20465;-63
2023/04/29 08:37:32;;;;;;;52.08;33.25;;;;;;;;;;5038660;28;20415;-63
2023/04/29 08:39:59;;;;;;;55.03;33.17;;;;;;;;;;5041772;28;20423;-63
2023/04/29 08:42:32;;;;;;;62.28;34.42;;;;;;;;;;5048577;28;20430;-61
2023/04/29 08:45:00;;;;;;;62.17;35.08;;;;;;;;;;5055082;28;20411;-60
2023/04/29 08:47:27;;;;;;;65.22;37.53;;;;;;;;;;5043602;28;20816;-59
2023/04/29 08:49:56;;;;;;;65.95;36.97;;;;;;;;;;5045262;28;20421;-60
2023/04/29 08:52:23;;;;;;;69.55;37.85;;;;;;;;;;5045470;28;20479;-61
2023/04/29 08:54:50;;;;;;;67.88;37.55;;;;;;;;;;5045329;28;20841;-60
2023/04/29 08:57:17;;;;;;;70.23;39.40;;;;;;;;;;5043490;28;20524;-62
2023/04/29 08:59:44;;;;;;;79.33;41.93;;;;;;;;;;5042212;28;20419;-62
2023/04/29 09:02:14;;;;;;;87.68;44.20;;;;;;;;;;5048261;28;20751;-62
2023/04/29 09:04:46;;;;;;;79.05;41.88;;;;;;;;;;5049256;28;20472;-60
2023/04/29 09:07:15;;;;;;;88.72;43.75;;;;;;;;;;5039468;28;20890;-61
2023/04/29 09:09:42;;;;;;;93.15;43.90;;;;;;;;;;5045460;28;20419;-62
2023/04/29 09:12:09;;;;;;;87.95;43.88;;;;;;;;;;5046460;28;20427;-62
2023/04/29 09:14:36;;;;;;;86.38;43.72;;;;;;;;;;5044154;28;20417;-62
2023/04/29 09:17:03;;;;;;;81.07;42.58;;;;;;;;;;5042258;28;20484;-60
2023/04/29 09:19:31;;;;;;;79.55;41.75;;;;;;;;;;5044144;28;20439;-62
2023/04/29 09:21:58;;;;;;;80.60;42.10;;;;;;;;;;5047131;28;20424;-61
2023/04/29 09:24:27;;;;;;;80.03;40.90;;;;;;;;;;5042003;28;20429;-60
2023/04/29 09:26:55;;;;;;;81.15;41.58;;;;;;;;;;5044216;28;20845;-60
2023/04/29 09:29:22;;;;;;;73.70;41.38;;;;;;;;;;5047173;28;20549;-62
2023/04/29 09:31:52;;;;;;;75.23;40.60;;;;;;;;;;5054665;28;20518;-61
2023/04/29 09:34:31;;;;;;;75.20;39.20;;;;;;;;;;5049448;28;20453;-62
2023/04/29 09:36:58;;;;;;;78.68;41.63;;;;;;;;;;5045108;28;20429;-62
2023/04/29 09:39:25;;;;;;;66.88;39.75;;;;;;;;;;5042293;28;20904;-62
2023/04/29 09:42:01;;;;;;;79.53;40.72;;;;;;;;;;5045695;28;20507;-60
2023/04/29 09:44:29;;;;;;;85.13;43.88;;;;;;;;;;5043538;28;20419;-62
2023/04/29 09:46:57;;;;;;;79.13;42.17;;;;;;;;;;5044134;28;20506;-62
2023/04/29 09:49:25;;;;;;;76.20;41.50;;;;;;;;;;5043715;28;20779;-62
2023/04/29 09:51:56;;;;;;;71.30;41.35;;;;;;;;;;5044236;28;20421;-62
2023/04/29 09:54:23;;;;;;;76.03;41.88;;;;;;;;;;5041570;28;20407;-60
2023/04/29 09:56:51;;;;;;;71.97;39.00;;;;;;;;;;5045334;28;20765;-61
2023/04/29 09:59:19;;;;;;;77.20;41.88;;;;;;;;;;5041958;28;20423;-62
2023/04/29 10:01:48;;;;;;;77.43;42.13;;;;;;;;;;5051399;28;20876;-62
2023/04/29 10:04:16;;;;;;;71.47;40.25;;;;;;;;;;5053235;28;20496;-61
2023/04/29 10:06:43;;;;;;;78.30;41.20;;;;;;;;;;5040126;28;20419;-59
2023/04/29 10:09:14;;;;;;;64.43;38.75;;;;;;;;;;5044136;28;20417;-62
2023/04/29 10:11:42;;;;;;;66.28;39.17;;;;;;;;;;5043637;28;20432;-62
2023/04/29 10:14:11;;;;;;;72.68;39.42;;;;;;;;;;5041881;28;20415;-62
2023/04/29 10:16:45;;;;;;;58.43;36.73;;;;;;;;;;5042560;28;20573;-60
2023/04/29 10:19:13;;;;;;;58.72;35.58;;;;;;;;;;5043876;28;20417;-62
2023/04/29 10:21:40;;;;;;;60.77;36.30;;;;;;;;;;5043391;28;20482;-62
2023/04/29 10:24:08;;;;;;;58.33;34.97;;;;;;;;;;5043372;28;20474;-62
2023/04/29 10:26:38;;;;;;;54.08;34.75;;;;;;;;;;5039331;28;20502;-61
2023/04/29 10:29:06;;;;;;;61.80;37.60;;;;;;;;;;5043542;28;20413;-61
2023/04/29 10:31:33;;;;;;;50.78;32.65;;;;;;;;;;5045072;28;20936;-61
2023/04/29 10:34:01;;;;;;;49.60;32.47;;;;;;;;;;5046967;28;20417;-60
2023/04/29 10:36:29;;;;;;;53.13;33.50;;;;;;;;;;5038582;28;20452;-61
2023/04/29 10:38:57;;;;;;;57.03;35.85;;;;;;;;;;5042940;28;20417;-60
2023/04/29 10:41:27;;;;;;;52.63;34.80;;;;;;;;;;5039356;28;20418;-59
2023/04/29 10:43:54;;;;;;;49.47;32.83;;;;;;;;;;5042352;28;20413;-60
2023/04/29 10:46:22;;;;;;;51.75;33.33;;;;;;;;;;5040507;28;20935;-59
2023/04/29 10:48:51;;;;;;;52.00;32.25;;;;;;;;;;5040304;28;20422;-63
2023/04/29 10:51:36;;;;;;;45.88;31.52;;;;;;;;;;5047515;28;20425;-62
2023/04/29 10:54:09;;;;;;;47.00;31.52;;;;;;;;;;5045901;28;20419;-60
2023/04/29 10:56:37;;;;;;;51.88;33.60;;;;;;;;;;5051025;28;20515;-62
2023/04/29 10:59:05;;;;;;;50.33;32.60;;;;;;;;;;5041168;28;20771;-62
2023/04/29 11:01:42;;;;;;;46.35;30.95;;;;;;;;;;5043053;28;20468;-64
2023/04/29 11:04:10;;;;;;;45.17;30.42;;;;;;;;;;5040449;28;20471;-64
2023/04/29 11:06:41;;;;;;;43.08;29.50;;;;;;;;;;5042991;28;20415;-60
2023/04/29 11:09:13;;;;;;;43.70;28.65;;;;;;;;;;5043365;28;21361;-63
2023/04/29 11:12:01;;;;;;;41.33;28.13;;;;;;;;;;5048164;28;20431;-63
2023/04/29 11:14:30;;;;;;;42.17;28.67;;;;;;;;;;5041808;28;20473;-65
2023/04/29 11:16:58;;;;;;;36.35;27.20;;;;;;;;;;5043732;28;20843;-64
2023/04/29 11:19:27;;;;;;;37.70;27.10;;;;;;;;;;5039081;28;20410;-64
2023/04/29 11:22:11;;;;;;;35.10;26.40;;;;;;;;;;5041633;28;20445;-67
2023/04/29 11:24:50;;;;;;;33.35;23.13;;;;;;;;;;5044670;28;20769;-62
2023/04/29 11:27:18;;;;;;;32.47;24.07;;;;;;;;;;5040257;28;20479;-64
2023/04/29 11:29:46;;;;;;;37.03;26.15;;;;;;;;;;5043400;28;20505;-64
2023/04/29 11:32:13;;;;;;;34.03;25.75;;;;;;;;;;5047709;28;20411;-65
2023/04/29 11:34:40;;;;;;;31.70;24.35;;;;;;;;;;5045529;28;20462;-63
2023/04/29 11:37:08;;;;;;;30.73;22.48;;;;;;;;;;5041810;28;20428;-64
2023/04/29 11:39:35;;;;;;;32.15;24.33;;;;;;;;;;5037941;28;20886;-64
2023/04/29 11:42:07;;;;;;;32.20;24.02;;;;;;;;;;5043347;28;20417;-64
2023/04/29 11:44:35;;;;;;;30.60;23.15;;;;;;;;;;5041044;28;20422;-63
2023/04/29 11:47:03;;;;;;;27.52;21.85;;;;;;;;;;5038949;28;20435;-62
2023/04/29 11:49:31;;;;;;;32.13;22.50;;;;;;;;;;5040982;28;20413;-63
2023/04/29 11:51:58;;;;;;;30.65;23.35;;;;;;;;;;5038334;28;20459;-63
2023/04/29 11:54:26;;;;;;;29.17;22.83;;;;;;;;;;5041322;28;20477;-64
2023/04/29 11:56:54;;;;;;;27.10;21.85;;;;;;;;;;5041956;28;20430;-65
2023/04/29 11:59:22;;;;;;;28.58;21.33;;;;;;;;;;5041586;28;20429;-65
2023/04/29 12:01:49;;;;;;;29.33;22.60;;;;;;;;;;5045702;28;20427;-64
2023/04/29 12:04:16;;;;;;;30.45;23.95;;;;;;;;;;5043131;28;20512;-62
2023/04/29 12:06:44;;;;;;;30.23;23.97;;;;;;;;;;5037893;28;21039;-63
2023/04/29 12:09:11;;;;;;;25.77;20.70;;;;;;;;;;5037583;28;20636;-63
2023/04/29 12:11:38;;;;;;;28.85;21.55;;;;;;;;;;5040478;28;20457;-63
2023/04/29 12:14:06;;;;;;;27.05;20.65;;;;;;;;;;5040998;28;20417;-64
2023/04/29 12:16:34;;;;;;;29.25;22.15;;;;;;;;;;5038021;28;20470;-64
2023/04/29 12:19:01;;;;;;;26.25;21.17;;;;;;;;;;5042484;28;20453;-64
2023/04/29 12:21:28;;;;;;;24.90;19.77;;;;;;;;;;5042077;28;20527;-64
2023/04/29 12:23:59;;;;;;;25.08;19.75;;;;;;;;;;5040739;28;20415;-64
2023/04/29 12:26:29;;;;;;;26.23;21.00;;;;;;;;;;5038552;28;20467;-64
2023/04/29 12:28:57;;;;;;;27.27;21.38;;;;;;;;;;5044031;28;20435;-64
2023/04/29 12:31:25;;;;;;;24.67;20.00;;;;;;;;;;5051048;28;20410;-64
2023/04/29 12:33:57;;;;;;;20.67;17.63;;;;;;;;;;5052646;28;20458;-64
2023/04/29 12:36:24;;;;;;;22.85;17.05;;;;;;;;;;5044360;28;20871;-65
2023/04/29 12:38:53;;;;;;;22.77;18.40;;;;;;;;;;5039248;28;20476;-63
2023/04/29 12:41:20;;;;;;;23.00;17.60;;;;;;;;;;5038794;28;20471;-64
2023/04/29 12:43:50;;;;;;;20.67;17.33;;;;;;;;;;5030159;28;20903;-63
2023/04/29 12:46:18;;;;;;;22.00;17.23;;;;;;;;;;5030221;28;20422;-64
2023/04/29 12:48:45;;;;;;;19.77;16.95;;;;;;;;;;5030018;28;20423;-64
2023/04/29 12:51:13;;;;;;;22.45;18.25;;;;;;;;;;5035456;28;20433;-63
2023/04/29 12:53:40;;;;;;;21.02;16.25;;;;;;;;;;5042019;28;20429;-64
2023/04/29 12:56:08;;;;;;;17.98;15.88;;;;;;;;;;5037565;28;20429;-65
2023/04/29 12:58:35;;;;;;;20.35;16.63;;;;;;;;;;5041455;28;20432;-64
2023/04/29 13:01:02;;;;;;;16.58;14.15;;;;;;;;;;5042926;28;20427;-64
2023/04/29 13:03:29;;;;;;;16.33;13.55;;;;;;;;;;5049100;28;20889;-63
2023/04/29 13:05:56;;;;;;;18.27;13.93;;;;;;;;;;5044743;28;20569;-70
2023/04/29 13:08:24;;;;;;;17.83;13.75;;;;;;;;;;5041543;28;20407;-64
2023/04/29 13:10:52;;;;;;;16.98;14.82;;;;;;;;;;5041129;28;20417;-64
2023/04/29 13:13:20;;;;;;;19.60;14.82;;;;;;;;;;5040858;28;20516;-65
2023/04/29 13:15:47;;;;;;;18.23;15.20;;;;;;;;;;5040758;28;20466;-65
2023/04/29 13:18:14;;;;;;;16.45;14.13;;;;;;;;;;5041874;28;20434;-65
2023/04/29 13:20:41;;;;;;;20.48;14.73;;;;;;;;;;5038534;28;20425;-64
2023/04/29 13:23:08;;;;;;;14.65;12.75;;;;;;;;;;5041985;28;20425;-65
2023/04/29 13:25:37;;;;;;;14.25;12.38;;;;;;;;;;5046211;28;20414;-64
2023/04/29 13:28:06;;;;;;;16.85;12.85;;;;;;;;;;5031234;28;20414;-64
2023/04/29 13:30:33;;;;;;;15.40;12.20;;;;;;;;;;5032454;28;20417;-65
2023/04/29 13:33:00;;;;;;;15.57;13.13;;;;;;;;;;5051661;28;20464;-64
2023/04/29 13:35:27;;;;;;;16.13;14.13;;;;;;;;;;5046161;28;20830;-64
2023/04/29 13:37:54;;;;;;;16.73;13.65;;;;;;;;;;5038140;28;20434;-64
2023/04/29 13:40:21;;;;;;;16.98;13.85;;;;;;;;;;5043795;28;20417;-64
2023/04/29 13:42:50;;;;;;;14.95;12.27;;;;;;;;;;5041242;28;20955;-64
2023/04/29 13:45:17;;;;;;;18.87;14.27;;;;;;;;;;5042193;28;20522;-64
2023/04/29 13:47:44;;;;;;;14.80;12.45;;;;;;;;;;5041198;28;20414;-64
2023/04/29 13:50:11;;;;;;;16.23;13.00;;;;;;;;;;5045106;28;20492;-65
2023/04/29 13:52:38;;;;;;;14.20;12.20;;;;;;;;;;5054312;28;20752;-64
2023/04/29 13:55:06;;;;;;;14.30;11.18;;;;;;;;;;5047255;28;20450;-65
2023/04/29 13:57:33;;;;;;;15.43;13.23;;;;;;;;;;5044285;28;20510;-64
2023/04/29 14:00:01;;;;;;;16.07;13.20;;;;;;;;;;5042764;28;20427;-64
2023/04/29 14:02:28;;;;;;;13.85;11.90;;;;;;;;;;5051450;28;20511;-66
2023/04/29 14:04:56;;;;;;;15.45;11.85;;;;;;;;;;5048140;28;20515;-65
2023/04/29 14:07:23;;;;;;;12.93;11.38;;;;;;;;;;5046700;28;20523;-62
2023/04/29 14:09:50;;;;;;;16.88;11.10;;;;;;;;;;5050502;28;20415;-66
2023/04/29 14:12:18;;;;;;;11.68;9.98;;;;;;;;;;5044273;28;20831;-65
2023/04/29 14:14:44;;;;;;;15.45;11.55;;;;;;;;;;5043290;28;20418;-65
2023/04/29 14:17:13;;;;;;;14.30;10.50;;;;;;;;;;5041337;28;20431;-64
2023/04/29 14:19:40;;;;;;;13.32;10.85;;;;;;;;;;5040937;28;20466;-67